createdAt,value
2023-09-07T00:01:08.431Z,22.88
2023-09-07T00:03:37.743Z,21.48
2023-09-07T00:06:05.365Z,27.80
2023-09-07T00:08:33.087Z,29.38
2023-09-07T00:11:04.670Z,32.28
2023-09-07T00:13:32.425Z,26.92
2023-09-07T00:16:00.893Z,20.17
2023-09-07T00:18:28.921Z,20.10
2023-09-07T00:20:58.677Z,21.50
2023-09-07T00:25:53.572Z,21.67
2023-09-07T00:28:21.386Z,22.58
2023-09-07T00:30:49.307Z,23.73
2023-09-07T00:33:17.506Z,24.73
2023-09-07T00:35:45.077Z,22.88
2023-09-07T00:38:14.644Z,19.88
2023-09-07T00:40:44.887Z,19.55
2023-09-07T00:43:12.905Z,18.33
2023-09-07T00:45:41.435Z,25.10
2023-09-07T00:48:09.916Z,23.58
2023-09-07T00:50:37.634Z,26.00
2023-09-07T00:53:05.344Z,23.13
2023-09-07T00:55:35.141Z,20.20
2023-09-07T00:58:03.701Z,20.95
2023-09-07T01:00:33.549Z,22.58
2023-09-07T01:03:01.234Z,21.65
2023-09-07T01:05:35.515Z,23.65
2023-09-07T01:08:11.011Z,20.08
2023-09-07T01:10:40.145Z,26.42
2023-09-07T01:13:07.771Z,21.80
2023-09-07T01:15:35.548Z,19.30
2023-09-07T01:18:17.943Z,23.00
2023-09-07T01:20:53.953Z,31.83
2023-09-07T01:23:24.722Z,35.00
2023-09-07T01:25:54.336Z,32.45
2023-09-07T01:28:22.142Z,34.63
2023-09-07T01:30:49.691Z,33.80
2023-09-07T01:33:17.293Z,23.95
2023-09-07T01:35:46.550Z,22.65
2023-09-07T01:38:14.781Z,26.45
2023-09-07T01:40:44.284Z,29.58
2023-09-07T01:43:12.575Z,29.60
2023-09-07T01:45:40.240Z,25.83
2023-09-07T01:48:10.303Z,28.42
2023-09-07T01:50:37.993Z,27.05
2023-09-07T01:53:05.646Z,29.27
2023-09-07T01:55:33.714Z,29.20
2023-09-07T01:58:03.231Z,26.08
2023-09-07T02:00:30.858Z,37.33
2023-09-07T02:02:58.549Z,28.88
2023-09-07T02:05:26.168Z,28.33
2023-09-07T02:07:53.794Z,22.02
2023-09-07T02:10:21.429Z,20.23
2023-09-07T02:12:48.928Z,29.13
2023-09-07T02:15:18.964Z,29.17
2023-09-07T02:17:46.990Z,21.70
2023-09-07T02:20:18.132Z,24.70
2023-09-07T02:22:45.914Z,28.15
2023-09-07T02:25:14.130Z,28.42
2023-09-07T02:27:41.981Z,38.83
2023-09-07T02:30:10.509Z,39.35
2023-09-07T02:32:39.657Z,28.40
2023-09-07T02:35:07.892Z,28.45
2023-09-07T02:37:37.048Z,24.27
2023-09-07T02:40:05.670Z,24.42
2023-09-07T02:42:33.220Z,21.25
2023-09-07T02:45:00.814Z,20.77
2023-09-07T02:47:28.736Z,26.00
2023-09-07T02:49:57.779Z,23.67
2023-09-07T02:52:25.339Z,20.02
2023-09-07T02:54:53.310Z,20.85
2023-09-07T02:57:21.677Z,18.40
2023-09-07T02:59:49.376Z,18.90
2023-09-07T03:02:16.845Z,17.27
2023-09-07T03:04:44.605Z,15.45
2023-09-07T03:07:14.470Z,16.38
2023-09-07T03:09:42.036Z,20.25
2023-09-07T03:12:10.472Z,20.27
2023-09-07T03:14:38.297Z,23.98
2023-09-07T03:17:06.015Z,17.33
2023-09-07T03:19:33.871Z,33.60
2023-09-07T03:22:01.706Z,25.73
2023-09-07T03:24:30.764Z,32.63
2023-09-07T03:26:58.689Z,26.45
2023-09-07T03:29:27.232Z,23.02
2023-09-07T03:31:55.034Z,21.42
2023-09-07T03:34:23.030Z,22.67
2023-09-07T03:36:50.594Z,23.80
2023-09-07T03:39:18.324Z,22.67
2023-09-07T03:41:47.354Z,19.38
2023-09-07T03:44:15.257Z,16.42
2023-09-07T03:46:43.387Z,16.60
2023-09-07T03:49:11.297Z,32.65
2023-09-07T03:51:39.082Z,21.60
2023-09-07T03:54:06.832Z,16.40
2023-09-07T03:56:34.519Z,19.58
2023-09-07T03:59:03.809Z,21.85
2023-09-07T04:01:31.739Z,19.50
2023-09-07T04:04:00.058Z,16.92
2023-09-07T04:06:28.115Z,19.85
2023-09-07T04:08:55.637Z,26.88
2023-09-07T04:11:23.192Z,22.77
2023-09-07T04:13:50.811Z,26.77
2023-09-07T04:16:19.900Z,21.77
2023-09-07T04:18:47.627Z,33.85
2023-09-07T04:21:15.351Z,26.60
2023-09-07T04:23:42.918Z,23.55
2023-09-07T04:26:12.050Z,20.70
2023-09-07T04:28:40.020Z,19.75
2023-09-07T04:31:08.358Z,19.83
2023-09-07T04:33:37.518Z,23.52
2023-09-07T04:36:09.721Z,24.40
2023-09-07T04:38:37.546Z,27.33
2023-09-07T04:41:09.332Z,19.98
2023-09-07T04:43:37.252Z,16.20
2023-09-07T04:46:05.125Z,13.10
2023-09-07T04:48:33.203Z,25.90
2023-09-07T04:51:03.179Z,18.20
2023-09-07T04:53:32.566Z,23.33
2023-09-07T04:56:00.656Z,24.60
2023-09-07T04:58:28.338Z,17.65
2023-09-07T05:01:02.703Z,13.45
2023-09-07T05:03:31.434Z,34.47
2023-09-07T05:05:59.282Z,26.15
2023-09-07T05:08:28.737Z,25.85
2023-09-07T05:13:24.397Z,22.88
2023-09-07T05:15:53.279Z,21.92
2023-09-07T05:18:21.704Z,17.95
2023-09-07T05:20:49.454Z,16.17
2023-09-07T05:23:17.732Z,19.92
2023-09-07T05:25:47.033Z,25.20
2023-09-07T05:28:15.613Z,18.58
2023-09-07T05:30:43.856Z,18.77
2023-09-07T05:33:12.897Z,15.77
2023-09-07T05:35:40.961Z,15.18
2023-09-07T05:38:09.256Z,14.05
2023-09-07T05:40:38.495Z,12.35
2023-09-07T05:43:08.205Z,11.83
2023-09-07T05:45:37.928Z,13.07
2023-09-07T05:48:07.596Z,11.77
2023-09-07T05:50:36.397Z,10.50
2023-09-07T05:53:04.846Z,11.57
2023-09-07T05:55:33.782Z,10.30
2023-09-07T05:58:09.234Z,11.57
2023-09-07T06:00:40.499Z,9.52
2023-09-07T06:03:09.175Z,11.25
2023-09-07T06:05:38.018Z,11.07
2023-09-07T06:10:34.678Z,9.35
2023-09-07T06:13:04.307Z,9.48
2023-09-07T06:15:34.186Z,11.38
2023-09-07T06:18:02.275Z,7.75
2023-09-07T06:20:30.070Z,11.88
2023-09-07T06:23:00.117Z,9.18
2023-09-07T06:25:28.099Z,14.35
2023-09-07T06:27:56.591Z,11.90
2023-09-07T06:30:25.476Z,17.75
2023-09-07T06:32:54.902Z,19.95
2023-09-07T06:35:23.984Z,14.18
2023-09-07T06:37:52.231Z,16.50
2023-09-07T06:40:23.484Z,17.30
2023-09-07T06:42:54.816Z,15.35
2023-09-07T06:47:51.683Z,17.15
2023-09-07T06:50:23.884Z,17.27
2023-09-07T06:52:52.348Z,13.27
2023-09-07T06:55:20.712Z,11.05
2023-09-07T06:57:48.452Z,10.82
2023-09-07T07:00:16.492Z,10.80
2023-09-07T07:02:44.764Z,11.40
2023-09-07T07:05:13.147Z,9.65
2023-09-07T07:07:43.320Z,14.57
2023-09-07T07:10:13.209Z,11.55
2023-09-07T07:12:42.076Z,11.02
2023-09-07T07:15:10.736Z,10.05
2023-09-07T07:17:39.016Z,11.85
2023-09-07T07:20:08.430Z,9.70
2023-09-07T07:22:36.560Z,9.75
2023-09-07T07:25:07.152Z,9.27
2023-09-07T07:27:35.566Z,11.45
2023-09-07T07:30:03.735Z,11.95
2023-09-07T07:32:31.441Z,11.73
2023-09-07T07:34:59.220Z,10.23
2023-09-07T07:37:27.387Z,10.70
2023-09-07T07:39:54.958Z,14.43
2023-09-07T07:42:24.119Z,12.65
2023-09-07T07:47:19.849Z,9.55
2023-09-07T07:49:47.917Z,11.50
2023-09-07T07:52:15.495Z,8.55
2023-09-07T07:54:43.222Z,10.55
2023-09-07T07:57:11.690Z,8.45
2023-09-07T07:59:41.075Z,11.15
2023-09-07T08:02:09.329Z,10.90
2023-09-07T08:04:37.429Z,8.77
2023-09-07T08:07:07.099Z,6.68
2023-09-07T08:09:35.792Z,10.37
2023-09-07T08:12:04.554Z,14.02
2023-09-07T08:14:34.720Z,24.65
2023-09-07T08:17:06.068Z,21.38
2023-09-07T08:19:34.031Z,18.20
2023-09-07T08:22:03.099Z,20.55
2023-09-07T08:24:30.772Z,16.55
2023-09-07T08:26:58.353Z,16.42
2023-09-07T08:29:26.198Z,13.57
2023-09-07T08:31:57.245Z,12.15
2023-09-07T08:34:28.548Z,22.98
2023-09-07T08:36:56.362Z,15.57
2023-09-07T08:39:24.029Z,16.05
2023-09-07T08:42:01.305Z,15.68
2023-09-07T08:44:33.867Z,11.07
2023-09-07T08:47:03.863Z,11.35
2023-09-07T08:49:33.864Z,11.77
2023-09-07T08:52:04.142Z,13.15
2023-09-07T08:54:34.326Z,11.80
2023-09-07T08:59:32.088Z,11.68
2023-09-07T09:01:59.938Z,10.10
2023-09-07T09:04:29.221Z,10.82
2023-09-07T09:06:58.418Z,13.25
2023-09-07T09:09:26.499Z,15.82
2023-09-07T09:11:54.161Z,17.23
2023-09-07T09:14:21.829Z,28.75
2023-09-07T09:16:53.098Z,22.85
2023-09-07T09:19:20.848Z,19.83
2023-09-07T09:21:48.451Z,21.35
2023-09-07T09:24:17.913Z,18.02
2023-09-07T09:26:46.488Z,19.88
2023-09-07T09:29:14.109Z,12.60
2023-09-07T09:31:41.868Z,12.13
2023-09-07T09:34:10.963Z,12.20
2023-09-07T09:36:38.531Z,13.85
2023-09-07T09:39:06.386Z,11.45
2023-09-07T09:41:36.418Z,12.48
2023-09-07T09:44:05.042Z,12.77
2023-09-07T09:46:33.878Z,11.05
2023-09-07T09:49:03.081Z,12.40
2023-09-07T09:53:59.956Z,27.77
2023-09-07T09:56:27.693Z,11.57
2023-09-07T09:58:56.712Z,17.45
2023-09-07T10:01:24.376Z,26.85
2023-09-07T10:03:53.231Z,26.85
2023-09-07T10:06:24.594Z,19.67
2023-09-07T10:08:56.814Z,19.08
2023-09-07T10:11:34.895Z,12.82
2023-09-07T10:14:05.688Z,12.27
2023-09-07T10:16:43.456Z,10.95
2023-09-07T10:19:18.893Z,10.90
2023-09-07T10:21:46.739Z,59.33
2023-09-07T10:24:24.981Z,35.00
2023-09-07T10:26:58.514Z,22.35
2023-09-07T10:29:29.286Z,29.42
2023-09-07T10:31:56.877Z,21.88
2023-09-07T10:34:36.269Z,22.20
2023-09-07T10:37:05.125Z,12.30
2023-09-07T10:39:33.714Z,11.82
2023-09-07T10:42:01.874Z,13.35
2023-09-07T10:44:30.981Z,12.30
2023-09-07T10:46:59.306Z,9.85
2023-09-07T10:49:27.366Z,11.32
2023-09-07T10:51:56.034Z,12.63
2023-09-07T10:54:25.922Z,14.35
2023-09-07T10:56:55.145Z,12.25
2023-09-07T10:59:23.610Z,11.60
2023-09-07T11:01:52.589Z,10.70
2023-09-07T11:04:20.915Z,10.73
2023-09-07T11:06:49.452Z,9.43
2023-09-07T11:09:17.619Z,11.30
2023-09-07T11:11:48.358Z,12.48
2023-09-07T11:14:16.013Z,12.07
2023-09-07T11:16:43.749Z,8.73
2023-09-07T11:19:14.788Z,11.13
2023-09-07T11:21:42.448Z,8.13
2023-09-07T11:24:10.107Z,9.30
2023-09-07T11:26:44.451Z,8.10
2023-09-07T11:29:15.583Z,9.32
2023-09-07T11:31:43.706Z,9.07
2023-09-07T11:34:14.156Z,8.50
2023-09-07T11:36:41.983Z,9.20
2023-09-07T11:39:11.916Z,7.50
2023-09-07T11:41:43.063Z,9.48
2023-09-07T11:44:11.896Z,8.40
2023-09-07T11:46:40.797Z,8.05
2023-09-07T11:49:08.755Z,9.23
2023-09-07T11:51:38.057Z,11.10
2023-09-07T11:54:07.170Z,13.80
2023-09-07T11:56:35.239Z,9.95
2023-09-07T11:59:03.951Z,10.93
2023-09-07T12:01:31.934Z,11.68
2023-09-07T12:03:59.799Z,8.88
2023-09-07T12:06:28.288Z,11.32
2023-09-07T12:09:04.692Z,9.73
2023-09-07T12:11:32.354Z,11.55
2023-09-07T12:14:00.411Z,9.35
2023-09-07T12:16:29.593Z,11.20
2023-09-07T12:18:57.434Z,9.57
2023-09-07T12:21:25.238Z,9.18
2023-09-07T12:23:52.902Z,9.27
2023-09-07T12:26:22.341Z,9.65
2023-09-07T12:28:50.233Z,6.90
2023-09-07T12:31:18.131Z,8.80
2023-09-07T12:33:45.832Z,8.75
2023-09-07T12:36:13.488Z,6.57
2023-09-07T12:38:41.233Z,11.18
2023-09-07T12:41:08.929Z,7.60
2023-09-07T12:43:38.032Z,10.85
2023-09-07T12:46:05.767Z,11.52
2023-09-07T12:48:33.500Z,8.27
2023-09-07T12:51:02.154Z,9.02
2023-09-07T12:53:30.622Z,8.13
2023-09-07T12:55:58.656Z,8.80
2023-09-07T12:58:26.739Z,10.13
2023-09-07T13:00:56.075Z,9.27
2023-09-07T13:03:24.377Z,9.52
2023-09-07T13:05:52.055Z,7.50
2023-09-07T13:08:19.771Z,7.85
2023-09-07T13:10:47.300Z,10.25
2023-09-07T13:13:14.794Z,8.02
2023-09-07T13:15:43.298Z,8.80
2023-09-07T13:18:14.711Z,8.63
2023-09-07T13:20:43.964Z,8.93
2023-09-07T13:23:12.024Z,10.10
2023-09-07T13:25:39.731Z,9.07
2023-09-07T13:28:07.345Z,9.13
2023-09-07T13:30:34.945Z,11.23
2023-09-07T13:33:02.657Z,7.32
2023-09-07T13:35:31.782Z,8.15
2023-09-07T13:37:59.345Z,9.35
2023-09-07T13:40:26.820Z,8.70
2023-09-07T13:42:54.533Z,11.00
2023-09-07T13:45:22.555Z,8.48
2023-09-07T13:47:50.497Z,7.13
2023-09-07T13:50:18.179Z,7.63
2023-09-07T13:52:49.338Z,9.45
2023-09-07T13:55:17.476Z,8.02
2023-09-07T13:57:45.211Z,8.57
2023-09-07T14:00:13.690Z,8.70
2023-09-07T14:02:44.267Z,9.05
2023-09-07T14:05:13.831Z,9.23
2023-09-07T14:07:41.575Z,10.70
2023-09-07T14:10:10.962Z,9.95
2023-09-07T14:12:38.502Z,10.38
2023-09-07T14:15:07.471Z,8.55
2023-09-07T14:17:35.236Z,8.27
2023-09-07T14:20:02.783Z,10.48
2023-09-07T14:22:31.758Z,7.78
2023-09-07T14:25:00.267Z,9.25
2023-09-07T14:27:29.566Z,12.23
2023-09-07T14:29:57.355Z,8.82
2023-09-07T14:32:24.989Z,11.80
2023-09-07T14:34:52.586Z,9.90
2023-09-07T14:37:20.269Z,12.45
2023-09-07T14:39:48.385Z,10.90
2023-09-07T14:42:16.282Z,14.90
2023-09-07T14:44:46.091Z,10.60
2023-09-07T14:47:13.834Z,10.57
2023-09-07T14:49:42.456Z,10.77
2023-09-07T14:52:10.600Z,11.80
2023-09-07T14:54:38.164Z,17.67
2023-09-07T14:57:06.022Z,23.95
2023-09-07T14:59:33.914Z,22.75
2023-09-07T15:02:06.014Z,12.93
2023-09-07T15:04:35.715Z,18.98
2023-09-07T15:07:04.544Z,18.00
2023-09-07T15:09:32.582Z,35.30
2023-09-07T15:12:00.921Z,31.83
2023-09-07T15:14:29.597Z,30.15
2023-09-07T15:17:02.395Z,34.72
2023-09-07T15:19:30.566Z,28.75
2023-09-07T15:21:58.904Z,27.08
2023-09-07T15:24:26.908Z,21.02
2023-09-07T15:26:55.257Z,18.23
2023-09-07T15:29:23.129Z,22.77
2023-09-07T15:31:50.935Z,17.35
2023-09-07T15:34:20.451Z,19.85
2023-09-07T15:36:48.725Z,21.20
2023-09-07T15:39:16.584Z,14.73
2023-09-07T15:41:44.169Z,16.25
2023-09-07T15:44:11.945Z,18.00
2023-09-07T15:46:39.553Z,16.38
2023-09-07T15:49:07.193Z,39.92
2023-09-07T15:51:36.245Z,26.60
2023-09-07T15:54:04.057Z,21.70
2023-09-07T15:56:31.778Z,21.85
2023-09-07T15:58:59.359Z,15.32
2023-09-07T16:01:28.041Z,16.77
2023-09-07T16:03:55.746Z,18.25
2023-09-07T16:06:23.457Z,15.32
2023-09-07T16:08:52.521Z,16.17
2023-09-07T16:11:20.209Z,19.40
2023-09-07T16:13:47.865Z,15.05
2023-09-07T16:16:15.435Z,16.02
2023-09-07T16:18:43.042Z,15.60
2023-09-07T16:21:10.780Z,15.25
2023-09-07T16:23:38.892Z,16.60
2023-09-07T16:26:07.943Z,18.02
2023-09-07T16:28:35.477Z,17.10
2023-09-07T16:31:02.982Z,17.60
2023-09-07T16:33:30.541Z,18.75
2023-09-07T16:35:58.024Z,22.27
2023-09-07T16:38:26.141Z,19.48
2023-09-07T16:40:54.355Z,18.98
2023-09-07T16:43:23.430Z,15.05
2023-09-07T16:45:58.112Z,15.98
2023-09-07T16:48:25.774Z,14.13
2023-09-07T16:50:53.367Z,15.15
2023-09-07T16:53:21.586Z,15.50
2023-09-07T16:55:50.084Z,13.43
2023-09-07T16:58:18.590Z,14.98
2023-09-07T17:00:48.013Z,14.48
2023-09-07T17:03:15.685Z,13.20
2023-09-07T17:05:43.550Z,12.75
2023-09-07T17:08:12.326Z,11.65
2023-09-07T17:10:39.827Z,16.17
2023-09-07T17:13:08.160Z,15.27
2023-09-07T17:15:36.552Z,14.68
2023-09-07T17:18:06.893Z,34.95
2023-09-07T17:20:37.044Z,52.22
2023-09-07T17:25:34.511Z,31.73
2023-09-07T17:28:03.332Z,18.52
2023-09-07T17:30:35.271Z,20.90
2023-09-07T17:33:03.122Z,17.17
2023-09-07T17:35:36.120Z,13.88
2023-09-07T17:38:04.399Z,14.23
2023-09-07T17:40:32.091Z,12.57
2023-09-07T17:42:59.686Z,14.48
2023-09-07T17:45:27.757Z,13.20
2023-09-07T17:47:55.724Z,14.95
2023-09-07T17:50:23.386Z,12.43
2023-09-07T17:52:52.350Z,11.98
2023-09-07T17:55:20.416Z,14.65
2023-09-07T17:57:47.996Z,12.48
2023-09-07T18:00:17.067Z,12.98
2023-09-07T18:02:45.871Z,13.27
2023-09-07T18:05:13.876Z,12.20
2023-09-07T18:07:41.994Z,11.65
2023-09-07T18:10:12.695Z,22.35
2023-09-07T18:12:40.220Z,25.10
2023-09-07T18:15:08.658Z,29.67
2023-09-07T18:17:37.534Z,26.45
2023-09-07T18:20:05.632Z,15.13
2023-09-07T18:22:33.732Z,14.55
2023-09-07T18:25:01.954Z,13.35
2023-09-07T18:27:30.978Z,13.02
2023-09-07T18:29:59.466Z,11.30
2023-09-07T18:32:26.931Z,16.13
2023-09-07T18:34:54.668Z,16.85
2023-09-07T18:37:22.387Z,18.35
2023-09-07T18:39:49.944Z,14.40
2023-09-07T18:42:18.132Z,13.90
2023-09-07T18:44:47.752Z,12.13
2023-09-07T18:47:15.308Z,14.80
2023-09-07T18:49:43.559Z,17.65
2023-09-07T18:52:12.075Z,19.48
2023-09-07T18:54:40.242Z,17.55
2023-09-07T18:57:09.664Z,15.97
2023-09-07T18:59:37.182Z,14.80
2023-09-07T19:02:06.811Z,13.18
2023-09-07T19:04:34.750Z,11.68
2023-09-07T19:07:02.932Z,11.02
2023-09-07T19:09:30.531Z,10.88
2023-09-07T19:11:57.981Z,12.15
2023-09-07T19:14:25.548Z,10.82
2023-09-07T19:16:53.190Z,13.65
2023-09-07T19:19:22.293Z,11.05
2023-09-07T19:21:49.908Z,10.00
2023-09-07T19:24:17.451Z,12.55
2023-09-07T19:26:44.969Z,11.50
2023-09-07T19:29:12.746Z,13.77
2023-09-07T19:31:40.735Z,25.20
2023-09-07T19:34:09.535Z,30.95
2023-09-07T19:36:39.215Z,43.37
2023-09-07T19:39:07.584Z,30.52
2023-09-07T19:41:42.690Z,23.55
2023-09-07T19:44:13.227Z,14.05
2023-09-07T19:46:41.271Z,11.65
2023-09-07T19:49:08.941Z,11.93
2023-09-07T19:51:38.639Z,13.27
2023-09-07T19:54:07.007Z,11.20
2023-09-07T19:56:34.713Z,10.82
2023-09-07T19:59:02.240Z,10.75
2023-09-07T20:01:29.846Z,9.80
2023-09-07T20:03:57.596Z,10.25
2023-09-07T20:06:25.970Z,11.18
2023-09-07T20:08:55.244Z,13.32
2023-09-07T20:11:23.171Z,105.65
2023-09-07T20:13:51.601Z,24.00
2023-09-07T20:16:19.307Z,13.77
2023-09-07T20:18:47.130Z,16.52
2023-09-07T20:21:14.832Z,15.10
2023-09-07T20:23:42.438Z,17.67
2023-09-07T20:26:11.529Z,13.73
2023-09-07T20:28:39.508Z,11.95
2023-09-07T20:31:07.416Z,13.43
2023-09-07T20:33:35.022Z,13.90
2023-09-07T20:36:03.256Z,15.00
2023-09-07T20:38:31.011Z,16.48
2023-09-07T20:40:58.699Z,13.77
2023-09-07T20:43:27.722Z,13.15
2023-09-07T20:45:55.333Z,15.75
2023-09-07T20:48:23.523Z,15.30
2023-09-07T20:50:51.760Z,14.27
2023-09-07T20:53:19.813Z,13.18
2023-09-07T20:55:48.317Z,14.23
2023-09-07T20:58:16.301Z,12.50
2023-09-07T21:00:45.807Z,15.48
2023-09-07T21:03:13.909Z,15.45
2023-09-07T21:05:41.744Z,13.88
2023-09-07T21:08:09.381Z,12.00
2023-09-07T21:10:37.020Z,11.18
2023-09-07T21:13:04.981Z,13.25
2023-09-07T21:15:32.825Z,13.98
2023-09-07T21:18:01.980Z,12.38
2023-09-07T21:20:29.695Z,14.25
2023-09-07T21:22:57.368Z,12.95
2023-09-07T21:25:24.939Z,12.93
2023-09-07T21:27:52.452Z,12.05
2023-09-07T21:30:20.129Z,13.93
2023-09-07T21:32:47.756Z,12.02
2023-09-07T21:35:17.050Z,14.38
2023-09-07T21:37:44.636Z,20.35
2023-09-07T21:40:12.697Z,20.58
2023-09-07T21:42:40.338Z,22.77
2023-09-07T21:45:08.185Z,22.67
2023-09-07T21:47:35.765Z,12.27
2023-09-07T21:50:03.724Z,12.18
2023-09-07T21:52:32.768Z,11.80
2023-09-07T21:55:00.433Z,11.23
2023-09-07T21:57:28.377Z,11.13
2023-09-07T21:59:55.949Z,9.63
2023-09-07T22:02:24.153Z,10.88
2023-09-07T22:04:52.497Z,10.73
2023-09-07T22:07:20.123Z,11.35
2023-09-07T22:09:49.170Z,10.13
2023-09-07T22:12:16.760Z,9.88
2023-09-07T22:14:44.282Z,12.77
2023-09-07T22:17:11.795Z,10.25
2023-09-07T22:19:40.451Z,11.35
2023-09-07T22:22:08.030Z,10.45
2023-09-07T22:24:35.808Z,11.45
2023-09-07T22:27:05.327Z,9.77
2023-09-07T22:32:00.822Z,12.18
2023-09-07T22:34:29.050Z,8.95
2023-09-07T22:36:56.720Z,9.95
2023-09-07T22:39:24.314Z,9.00
2023-09-07T22:41:51.863Z,10.75
2023-09-07T22:44:21.066Z,8.57
2023-09-07T22:46:48.625Z,14.52
2023-09-07T22:49:16.158Z,22.80
2023-09-07T22:51:43.912Z,44.00
2023-09-07T22:54:12.129Z,48.72
2023-09-07T22:56:40.646Z,33.50
2023-09-07T22:59:08.142Z,23.27
2023-09-07T23:01:40.037Z,19.35
2023-09-07T23:04:08.346Z,12.63
2023-09-07T23:06:36.270Z,14.02
2023-09-07T23:09:05.053Z,11.40
2023-09-07T23:11:33.181Z,13.80
2023-09-07T23:14:00.803Z,11.80
2023-09-07T23:16:28.517Z,11.48
2023-09-07T23:18:57.605Z,10.35
2023-09-07T23:21:25.252Z,11.82
2023-09-07T23:23:52.880Z,11.52
2023-09-07T23:26:20.466Z,13.90
2023-09-07T23:28:48.089Z,9.98
2023-09-07T23:31:15.663Z,11.82
2023-09-07T23:33:45.273Z,13.18
2023-09-07T23:36:14.411Z,11.55
2023-09-07T23:38:41.887Z,11.75
2023-09-07T23:41:09.932Z,13.10
2023-09-07T23:43:37.468Z,12.48
2023-09-07T23:46:06.579Z,10.10
2023-09-07T23:48:34.579Z,12.45
2023-09-07T23:51:02.262Z,9.88
2023-09-07T23:53:31.176Z,10.63
2023-09-07T23:55:58.771Z,10.60
2023-09-07T23:58:26.356Z,12.00
